createdAt,value
2018-02-18T00:02:24.271Z,48.17
2018-02-18T00:04:52.571Z,48.65
2018-02-18T00:07:20.596Z,45.38
2018-02-18T00:09:48.931Z,46.58
2018-02-18T00:12:18.010Z,44.17
2018-02-18T00:14:51.910Z,45.25
2018-02-18T00:17:20.070Z,44.00
2018-02-18T00:19:48.050Z,44.03
2018-02-18T00:22:16.251Z,47.65
2018-02-18T00:24:45.330Z,44.20
2018-02-18T00:27:13.490Z,44.88
2018-02-18T00:29:42.370Z,46.33
2018-02-18T00:32:10.450Z,47.05
2018-02-18T00:34:38.890Z,45.30
2018-02-18T00:37:07.650Z,45.55
2018-02-18T00:39:37.017Z,42.10
2018-02-18T00:42:05.610Z,47.83
2018-02-18T00:44:34.211Z,48.58
2018-02-18T00:47:03.571Z,46.37
2018-02-18T00:49:32.050Z,47.95
2018-02-18T00:52:00.573Z,48.17
2018-02-18T00:54:29.730Z,50.42
2018-02-18T00:56:58.011Z,49.20
2018-02-18T00:59:26.511Z,48.08
2018-02-18T01:01:54.770Z,45.03
2018-02-18T01:04:23.013Z,48.55
2018-02-18T01:06:51.530Z,47.30
2018-02-18T01:09:19.690Z,49.85
2018-02-18T01:11:47.831Z,47.35
2018-02-18T01:14:16.151Z,47.15
2018-02-18T01:16:44.450Z,46.35
2018-02-18T01:19:13.309Z,43.08
2018-02-18T01:21:41.510Z,40.33
2018-02-18T01:24:09.750Z,49.47
2018-02-18T01:26:37.950Z,45.72
2018-02-18T01:29:06.210Z,43.35
2018-02-18T01:31:34.390Z,45.97
2018-02-18T01:34:02.609Z,47.20
2018-02-18T01:36:30.850Z,47.22
2018-02-18T01:38:59.010Z,48.33
2018-02-18T01:41:27.910Z,44.40
2018-02-18T01:43:56.031Z,46.17
2018-02-18T01:46:24.250Z,42.95
2018-02-18T01:48:52.711Z,45.58
2018-02-18T01:51:21.209Z,45.75
2018-02-18T01:53:49.430Z,46.58
2018-02-18T01:56:17.970Z,49.00
2018-02-18T01:58:46.430Z,45.45
2018-02-18T02:01:14.489Z,48.92
2018-02-18T02:03:42.889Z,46.40
2018-02-18T02:06:11.514Z,45.85
2018-02-18T02:08:39.771Z,47.28
2018-02-18T02:11:08.950Z,49.38
2018-02-18T02:13:37.971Z,44.05
2018-02-18T02:16:06.104Z,45.85
2018-02-18T02:18:34.270Z,48.03
2018-02-18T02:21:02.570Z,44.83
2018-02-18T02:23:30.953Z,43.87
2018-02-18T02:25:59.817Z,50.72
2018-02-18T02:28:28.098Z,49.58
2018-02-18T02:30:56.276Z,46.70
2018-02-18T02:33:24.617Z,45.80
2018-02-18T02:35:53.381Z,39.55
2018-02-18T02:38:22.036Z,41.75
2018-02-18T02:40:51.035Z,44.63
2018-02-18T02:43:20.216Z,43.38
2018-02-18T02:45:48.697Z,44.10
2018-02-18T02:48:16.816Z,44.47
2018-02-18T02:50:45.136Z,45.40
2018-02-18T02:53:13.436Z,44.80
2018-02-18T02:55:42.519Z,40.53
2018-02-18T02:58:10.836Z,43.70
2018-02-18T03:00:39.276Z,40.88
2018-02-18T03:03:08.976Z,42.15
2018-02-18T03:05:37.156Z,45.45
2018-02-18T03:08:05.536Z,44.10
2018-02-18T03:10:33.780Z,44.70
2018-02-18T03:13:02.096Z,40.65
2018-02-18T03:15:30.956Z,42.95
2018-02-18T03:17:59.336Z,44.75
2018-02-18T03:20:27.536Z,45.35
2018-02-18T03:22:56.296Z,44.58
2018-02-18T03:25:24.776Z,46.20
2018-02-18T03:27:52.976Z,48.35
2018-02-18T03:30:21.978Z,40.55
2018-02-18T03:32:51.036Z,40.35
2018-02-18T03:35:19.161Z,46.20
2018-02-18T03:37:47.180Z,47.85
2018-02-18T03:40:15.435Z,47.97
2018-02-18T03:42:43.636Z,48.55
2018-02-18T03:45:11.676Z,45.75
2018-02-18T03:47:39.976Z,45.70
2018-02-18T03:50:08.457Z,47.47
2018-02-18T03:52:37.156Z,50.08
2018-02-18T03:55:06.456Z,45.35
2018-02-18T03:57:35.636Z,48.35
2018-02-18T04:00:04.136Z,48.38
2018-02-18T04:02:33.316Z,45.40
2018-02-18T04:05:01.996Z,45.25
2018-02-18T04:07:30.256Z,46.83
2018-02-18T04:09:58.376Z,45.58
2018-02-18T04:12:27.536Z,48.33
2018-02-18T04:14:55.696Z,43.97
2018-02-18T04:17:23.895Z,44.92
2018-02-18T04:19:52.276Z,47.25
2018-02-18T04:22:21.256Z,40.63
2018-02-18T04:24:49.536Z,42.88
2018-02-18T04:27:17.896Z,43.90
2018-02-18T04:29:46.298Z,46.30
2018-02-18T04:32:14.463Z,48.17
2018-02-18T04:34:42.736Z,46.40
2018-02-18T04:37:11.116Z,44.00
2018-02-18T04:39:39.795Z,51.35
2018-02-18T04:42:07.976Z,44.28
2018-02-18T04:44:35.976Z,42.45
2018-02-18T04:47:04.316Z,50.45
2018-02-18T04:49:32.696Z,48.95
2018-02-18T04:52:00.856Z,43.70
2018-02-18T04:54:28.936Z,47.15
2018-02-18T04:56:57.218Z,48.15
2018-02-18T04:59:25.220Z,46.20
2018-02-18T05:01:53.555Z,47.78
2018-02-18T05:04:21.756Z,43.25
2018-02-18T05:06:51.036Z,44.42
2018-02-18T05:09:19.236Z,43.60
2018-02-18T05:11:48.317Z,44.78
2018-02-18T05:14:17.716Z,43.05
2018-02-18T05:16:46.796Z,42.35
2018-02-18T05:19:14.976Z,45.35
2018-02-18T05:21:43.356Z,45.38
2018-02-18T05:24:11.636Z,46.00
2018-02-18T05:26:40.616Z,44.85
2018-02-18T05:29:08.956Z,44.40
2018-02-18T05:31:37.358Z,46.78
2018-02-18T05:34:06.056Z,46.78
2018-02-18T05:36:35.156Z,47.20
2018-02-18T05:39:03.616Z,42.50
2018-02-18T05:41:32.037Z,44.75
2018-02-18T05:44:01.077Z,47.72
2018-02-18T05:46:29.276Z,50.30
2018-02-18T05:48:57.636Z,47.08
2018-02-18T05:51:25.816Z,44.88
2018-02-18T05:53:53.956Z,43.87
2018-02-18T05:56:22.036Z,44.03
2018-02-18T05:58:50.275Z,47.20
2018-02-18T06:01:18.616Z,43.28
2018-02-18T06:03:46.896Z,48.58
2018-02-18T06:06:15.176Z,42.65
2018-02-18T06:08:43.456Z,45.30
2018-02-18T06:11:12.532Z,46.53
2018-02-18T06:13:40.656Z,48.53
2018-02-18T06:16:08.896Z,47.72
2018-02-18T06:18:37.056Z,46.30
2018-02-18T06:21:05.237Z,43.33
2018-02-18T06:23:33.656Z,42.33
2018-02-18T06:26:01.916Z,44.50
2018-02-18T06:28:30.375Z,48.25
2018-02-18T06:30:59.476Z,44.10
2018-02-18T06:33:28.556Z,47.13
2018-02-18T06:35:57.136Z,44.22
2018-02-18T06:38:25.296Z,42.25
2018-02-18T06:40:53.596Z,46.58
2018-02-18T06:43:21.877Z,46.88
2018-02-18T06:45:50.955Z,47.15
2018-02-18T06:48:19.122Z,50.47
2018-02-18T06:50:47.276Z,47.42
2018-02-18T06:53:15.495Z,45.10
2018-02-18T06:55:44.536Z,49.63
2018-02-18T06:58:12.718Z,49.15
2018-02-18T07:00:40.876Z,49.85
2018-02-18T07:03:09.256Z,52.83
2018-02-18T07:05:37.456Z,56.40
2018-02-18T07:08:05.616Z,52.38
2018-02-18T07:10:33.916Z,48.75
2018-02-18T07:13:01.976Z,49.83
2018-02-18T07:15:30.256Z,51.03
2018-02-18T07:17:58.436Z,47.90
2018-02-18T07:20:26.476Z,52.53
2018-02-18T07:22:54.907Z,53.33
2018-02-18T07:25:23.876Z,47.85
2018-02-18T07:27:51.936Z,51.30
2018-02-18T07:30:20.216Z,48.35
2018-02-18T07:32:48.276Z,43.78
2018-02-18T07:35:16.456Z,46.55
2018-02-18T07:37:44.637Z,49.70
2018-02-18T07:40:12.936Z,46.92
2018-02-18T07:42:42.117Z,47.17
2018-02-18T07:45:11.216Z,48.13
2018-02-18T07:47:40.276Z,48.17
2018-02-18T07:50:08.535Z,49.05
2018-02-18T07:52:36.817Z,51.47
2018-02-18T07:55:05.116Z,50.63
2018-02-18T07:57:33.296Z,52.33
2018-02-18T08:00:01.776Z,48.08
2018-02-18T08:02:30.135Z,53.28
2018-02-18T08:04:58.496Z,48.95
2018-02-18T08:07:26.857Z,47.92
2018-02-18T08:09:55.315Z,47.90
2018-02-18T08:12:24.401Z,49.53
2018-02-18T08:14:53.277Z,49.75
2018-02-18T08:17:21.276Z,49.50
2018-02-18T08:19:49.616Z,47.38
2018-02-18T08:22:18.416Z,49.28
2018-02-18T08:24:47.356Z,49.55
2018-02-18T08:27:15.576Z,48.85
2018-02-18T08:29:44.656Z,50.53
2018-02-18T08:32:13.136Z,49.00
2018-02-18T08:34:41.315Z,55.35
2018-02-18T08:37:09.376Z,52.92
2018-02-18T08:39:37.556Z,47.65
2018-02-18T08:42:05.838Z,51.78
2018-02-18T08:44:34.418Z,51.58
2018-02-18T08:47:02.597Z,53.40
2018-02-18T08:49:30.656Z,51.85
2018-02-18T08:51:59.197Z,50.50
2018-02-18T08:54:27.516Z,51.78
2018-02-18T08:56:55.995Z,48.50
2018-02-18T08:59:24.476Z,54.28
2018-02-18T09:01:52.956Z,49.80
2018-02-18T09:04:21.756Z,49.63
2018-02-18T09:06:50.956Z,50.05
2018-02-18T09:09:19.898Z,44.50
2018-02-18T09:11:48.317Z,45.95
2018-02-18T09:14:16.597Z,49.00
2018-02-18T09:16:45.576Z,45.63
2018-02-18T09:19:14.077Z,46.03
2018-02-18T09:21:43.137Z,44.78
2018-02-18T09:24:11.436Z,45.05
2018-02-18T09:26:39.697Z,45.85
2018-02-18T09:29:07.877Z,44.70
2018-02-18T09:31:35.997Z,43.35
2018-02-18T09:34:03.997Z,49.42
2018-02-18T09:36:32.217Z,44.95
2018-02-18T09:39:01.277Z,42.75
2018-02-18T09:41:29.457Z,45.17
2018-02-18T09:43:57.836Z,42.13
2018-02-18T09:46:26.017Z,47.80
2018-02-18T09:48:53.979Z,39.88
2018-02-18T09:51:22.256Z,43.85
2018-02-18T09:53:50.436Z,48.33
2018-02-18T09:56:18.598Z,52.53
2018-02-18T09:58:46.776Z,46.67
2018-02-18T10:01:14.956Z,41.10
2018-02-18T10:03:44.038Z,45.08
2018-02-18T10:06:12.562Z,47.97
2018-02-18T10:08:41.217Z,42.70
2018-02-18T10:11:09.483Z,44.30
2018-02-18T10:13:38.076Z,46.53
2018-02-18T10:16:07.136Z,48.45
2018-02-18T10:18:35.457Z,44.80
2018-02-18T10:21:04.516Z,52.17
2018-02-18T10:23:33.017Z,41.88
2018-02-18T10:26:01.157Z,42.78
2018-02-18T10:28:29.676Z,43.15
2018-02-18T10:30:58.796Z,42.72
2018-02-18T10:33:27.136Z,44.63
2018-02-18T10:35:55.416Z,44.45
2018-02-18T10:38:23.536Z,44.20
2018-02-18T10:40:51.856Z,43.13
2018-02-18T10:43:19.797Z,44.45
2018-02-18T10:45:47.997Z,46.03
2018-02-18T10:48:16.238Z,45.50
2018-02-18T10:50:44.336Z,43.10
2018-02-18T10:53:12.616Z,46.17
2018-02-18T10:55:40.796Z,46.20
2018-02-18T10:58:08.756Z,46.28
2018-02-18T11:00:37.056Z,47.88
2018-02-18T11:03:05.916Z,43.25
2018-02-18T11:05:34.316Z,48.47
2018-02-18T11:08:03.395Z,45.15
2018-02-18T11:10:32.896Z,45.50
2018-02-18T11:13:01.276Z,45.63
2018-02-18T11:15:29.676Z,49.67
2018-02-18T11:17:59.197Z,46.13
2018-02-18T11:20:27.636Z,50.17
2018-02-18T11:22:56.016Z,50.65
2018-02-18T11:25:24.576Z,45.92
2018-02-18T11:27:52.916Z,47.62
2018-02-18T11:30:21.355Z,49.70
2018-02-18T11:32:50.336Z,47.83
2018-02-18T11:35:18.636Z,44.30
2018-02-18T11:37:47.617Z,48.35
2018-02-18T11:40:16.284Z,47.60
2018-02-18T11:42:44.456Z,49.03
2018-02-18T11:45:12.856Z,49.70
2018-02-18T11:47:41.016Z,45.63
2018-02-18T11:50:09.296Z,50.83
2018-02-18T11:52:38.916Z,46.88
2018-02-18T11:55:06.956Z,47.95
2018-02-18T11:57:35.156Z,48.08
2018-02-18T12:00:03.316Z,45.05
2018-02-18T12:02:31.358Z,44.55
2018-02-18T12:04:59.776Z,48.47
2018-02-18T12:07:27.817Z,43.42
2018-02-18T12:09:56.118Z,44.50
2018-02-18T12:12:24.395Z,48.08
2018-02-18T12:14:52.459Z,47.45
2018-02-18T12:17:20.696Z,46.35
2018-02-18T12:19:49.021Z,45.78
2018-02-18T12:22:18.095Z,45.03
2018-02-18T12:24:46.276Z,47.58
2018-02-18T12:27:14.584Z,51.42
2018-02-18T12:29:43.676Z,46.20
2018-02-18T12:32:12.716Z,46.05
2018-02-18T12:34:42.056Z,48.55
2018-02-18T12:37:11.477Z,45.78
2018-02-18T12:39:39.815Z,42.08
2018-02-18T12:42:08.399Z,41.28
2018-02-18T12:44:36.730Z,49.22
2018-02-18T12:47:04.937Z,45.35
2018-02-18T12:49:33.136Z,46.53
2018-02-18T12:52:02.316Z,48.55
2018-02-18T12:54:30.676Z,44.97
2018-02-18T12:56:59.796Z,45.63
2018-02-18T12:59:27.997Z,44.25
2018-02-18T13:01:57.076Z,41.58
2018-02-18T13:04:26.255Z,41.47
2018-02-18T13:06:54.536Z,44.22
2018-02-18T13:11:58.016Z,46.83
2018-02-18T13:14:26.368Z,51.15
2018-02-18T13:16:54.696Z,47.75
2018-02-18T13:19:22.975Z,47.90
2018-02-18T13:21:51.276Z,46.45
2018-02-18T13:24:20.376Z,47.17
2018-02-18T13:26:49.436Z,46.85
2018-02-18T13:29:17.616Z,46.78
2018-02-18T13:31:45.996Z,47.08
2018-02-18T13:34:14.276Z,41.47
2018-02-18T13:36:42.356Z,47.80
2018-02-18T13:39:11.643Z,50.42
2018-02-18T13:41:40.135Z,48.45
2018-02-18T13:44:09.477Z,48.87
2018-02-18T13:46:38.216Z,44.35
2018-02-18T13:49:07.296Z,42.15
2018-02-18T13:51:36.236Z,46.67
2018-02-18T13:54:05.004Z,43.55
2018-02-18T13:56:34.176Z,53.42
2018-02-18T13:59:02.538Z,47.42
2018-02-18T14:01:31.516Z,46.85
2018-02-18T14:03:59.817Z,50.97
2018-02-18T14:06:28.176Z,55.05
2018-02-18T14:08:56.357Z,46.53
2018-02-18T14:11:24.441Z,47.22
2018-02-18T14:13:52.856Z,46.97
2018-02-18T14:16:21.204Z,45.10
2018-02-18T14:18:49.375Z,44.17
2018-02-18T14:21:17.559Z,42.28
2018-02-18T14:23:46.742Z,40.40
2018-02-18T14:26:15.036Z,41.47
2018-02-18T14:28:44.116Z,42.08
2018-02-18T14:31:12.456Z,43.13
2018-02-18T14:33:40.776Z,44.88
2018-02-18T14:36:09.856Z,48.92
2018-02-18T14:38:38.139Z,34.70
2018-02-18T14:41:06.417Z,33.42
2018-02-18T14:43:46.356Z,36.92
2018-02-18T14:46:26.416Z,38.55
2018-02-18T14:49:06.196Z,34.13
2018-02-18T14:51:46.436Z,35.13
2018-02-18T14:54:39.916Z,38.70
2018-02-18T14:57:29.857Z,37.47
2018-02-18T14:59:58.356Z,34.53
2018-02-18T15:02:27.516Z,40.67
2018-02-18T15:04:55.716Z,36.90
2018-02-18T15:07:24.700Z,34.00
2018-02-18T15:09:53.096Z,34.13
2018-02-18T15:12:22.278Z,37.42
2018-02-18T15:14:50.499Z,36.83
2018-02-18T15:17:18.617Z,36.17
2018-02-18T15:19:46.796Z,34.60
2018-02-18T15:22:15.175Z,40.00
2018-02-18T15:24:43.456Z,41.30
2018-02-18T15:27:11.840Z,37.85
2018-02-18T15:29:41.140Z,37.35
2018-02-18T15:32:10.116Z,40.72
2018-02-18T15:34:38.404Z,37.10
2018-02-18T15:37:06.816Z,39.90
2018-02-18T15:39:35.156Z,34.65
2018-02-18T15:42:03.380Z,35.67
2018-02-18T15:44:31.596Z,38.30
2018-02-18T15:47:00.033Z,38.90
2018-02-18T15:49:28.457Z,37.90
2018-02-18T15:51:56.736Z,40.50
2018-02-18T15:54:24.897Z,45.58
2018-02-18T15:56:53.316Z,41.17
2018-02-18T15:59:21.536Z,37.42
2018-02-18T16:01:50.261Z,46.10
2018-02-18T16:04:19.296Z,37.45
2018-02-18T16:06:47.716Z,38.63
2018-02-18T16:09:16.616Z,38.10
2018-02-18T16:11:45.916Z,36.35
2018-02-18T16:14:14.237Z,37.08
2018-02-18T16:16:42.658Z,36.17
2018-02-18T16:19:10.936Z,38.50
2018-02-18T16:21:39.016Z,42.38
2018-02-18T16:24:08.196Z,35.67
2018-02-18T16:26:36.356Z,37.05
2018-02-18T16:29:04.556Z,37.97
2018-02-18T16:31:33.657Z,34.22
2018-02-18T16:34:02.536Z,36.22
2018-02-18T16:36:31.635Z,39.00
2018-02-18T16:39:00.616Z,37.88
2018-02-18T16:41:28.796Z,42.95
2018-02-18T16:43:57.176Z,40.90
2018-02-18T16:46:25.339Z,40.40
2018-02-18T16:48:53.536Z,44.55
2018-02-18T16:51:22.395Z,37.17
2018-02-18T16:53:50.556Z,35.53
2018-02-18T16:56:18.957Z,36.38
2018-02-18T16:58:47.335Z,38.78
2018-02-18T17:01:15.397Z,36.70
2018-02-18T17:03:43.576Z,38.65
2018-02-18T17:06:11.756Z,37.17
2018-02-18T17:08:40.236Z,38.22
2018-02-18T17:11:08.376Z,38.25
2018-02-18T17:13:36.676Z,39.30
2018-02-18T17:16:05.876Z,36.47
2018-02-18T17:18:34.156Z,34.10
2018-02-18T17:21:03.457Z,38.70
2018-02-18T17:23:31.796Z,38.45
2018-02-18T17:26:00.316Z,43.72
2018-02-18T17:28:28.456Z,44.53
2018-02-18T17:30:56.956Z,40.50
2018-02-18T17:33:25.416Z,40.72
2018-02-18T17:35:53.836Z,38.03
2018-02-18T17:38:23.257Z,38.13
2018-02-18T17:40:51.597Z,41.13
2018-02-18T17:43:19.616Z,46.97
2018-02-18T17:45:47.839Z,40.00
2018-02-18T17:48:16.017Z,43.63
2018-02-18T17:50:44.977Z,40.63
2018-02-18T17:53:13.277Z,37.78
2018-02-18T17:55:41.557Z,39.15
2018-02-18T17:58:09.996Z,40.55
2018-02-18T18:00:38.237Z,40.90
2018-02-18T18:03:07.296Z,44.80
2018-02-18T18:05:35.477Z,44.45
2018-02-18T18:08:03.557Z,38.72
2018-02-18T18:10:31.717Z,36.30
2018-02-18T18:12:59.897Z,41.10
2018-02-18T18:15:28.277Z,43.75
2018-02-18T18:17:56.331Z,44.30
2018-02-18T18:20:24.511Z,43.47
2018-02-18T18:22:52.912Z,40.40
2018-02-18T18:25:21.896Z,38.83
2018-02-18T18:27:50.132Z,38.65
2018-02-18T18:30:18.471Z,39.67
2018-02-18T18:32:46.551Z,42.85
2018-02-18T18:35:14.672Z,44.78
2018-02-18T18:37:42.993Z,39.75
2018-02-18T18:40:11.561Z,46.25
2018-02-18T18:42:40.759Z,35.88
2018-02-18T18:45:10.101Z,36.08
2018-02-18T18:47:38.421Z,42.70
2018-02-18T18:50:07.400Z,40.33
2018-02-18T18:52:35.839Z,39.60
2018-02-18T18:55:04.561Z,38.83
2018-02-18T18:57:32.820Z,41.53
2018-02-18T19:00:01.220Z,44.03
2018-02-18T19:02:29.479Z,45.63
2018-02-18T19:04:57.760Z,46.17
2018-02-18T19:07:26.060Z,70.10
2018-02-18T19:09:54.381Z,58.97
2018-02-18T19:12:22.482Z,52.88
2018-02-18T19:14:50.800Z,42.90
2018-02-18T19:17:19.642Z,44.45
2018-02-18T19:19:48.139Z,49.95
2018-02-18T19:22:16.420Z,40.17
2018-02-18T19:24:44.499Z,39.10
2018-02-18T19:27:13.600Z,39.70
2018-02-18T19:29:42.481Z,35.78
2018-02-18T19:32:10.640Z,39.25
2018-02-18T19:34:38.820Z,34.40
2018-02-18T19:37:07.300Z,40.22
2018-02-18T19:39:35.481Z,37.75
2018-02-18T19:42:03.639Z,42.58
2018-02-18T19:44:31.911Z,39.25
2018-02-18T19:47:00.260Z,39.53
2018-02-18T19:49:28.679Z,41.50
2018-02-18T19:51:57.581Z,37.70
2018-02-18T19:54:26.966Z,38.55
2018-02-18T19:56:55.259Z,41.15
2018-02-18T19:59:24.484Z,38.60
2018-02-18T20:01:52.780Z,45.45
2018-02-18T20:04:21.239Z,44.75
2018-02-18T20:06:49.781Z,44.30
2018-02-18T20:09:18.139Z,44.65
2018-02-18T20:11:46.562Z,47.67
2018-02-18T20:14:15.720Z,47.22
2018-02-18T20:16:44.222Z,48.85
2018-02-18T20:19:13.021Z,44.92
2018-02-18T20:21:41.981Z,45.35
2018-02-18T20:24:10.182Z,42.97
2018-02-18T20:26:38.999Z,47.50
2018-02-18T20:29:07.540Z,45.20
2018-02-18T20:31:35.799Z,51.22
2018-02-18T20:34:04.708Z,47.35
2018-02-18T20:36:33.720Z,44.28
2018-02-18T20:39:02.880Z,38.72
2018-02-18T20:41:31.260Z,38.30
2018-02-18T20:43:59.540Z,45.47
2018-02-18T20:46:27.921Z,43.78
2018-02-18T20:48:56.600Z,39.78
2018-02-18T20:51:24.985Z,42.47
2018-02-18T20:53:53.360Z,42.78
2018-02-18T20:56:21.960Z,43.28
2018-02-18T20:58:51.421Z,43.65
2018-02-18T21:01:19.779Z,47.62
2018-02-18T21:03:48.322Z,51.75
2018-02-18T21:06:17.661Z,54.63
2018-02-18T21:08:46.206Z,52.65
2018-02-18T21:11:15.527Z,45.03
2018-02-18T21:13:44.181Z,39.78
2018-02-18T21:16:13.580Z,38.28
2018-02-18T21:18:42.020Z,36.67
2018-02-18T21:21:10.340Z,38.00
2018-02-18T21:23:39.540Z,42.40
2018-02-18T21:26:09.042Z,39.80
2018-02-18T21:28:38.221Z,37.72
2018-02-18T21:31:06.380Z,35.80
2018-02-18T21:33:34.960Z,34.08
2018-02-18T21:36:03.139Z,32.63
2018-02-18T21:38:31.639Z,36.30
2018-02-18T21:41:00.779Z,41.00
2018-02-18T21:43:28.920Z,41.97
2018-02-18T21:45:58.163Z,40.30
2018-02-18T21:48:26.679Z,39.50
2018-02-18T21:50:55.060Z,50.45
2018-02-18T21:53:23.440Z,42.35
2018-02-18T21:55:51.499Z,47.22
2018-02-18T21:58:19.567Z,44.22
2018-02-18T22:00:47.761Z,44.55
2018-02-18T22:03:16.900Z,39.88
2018-02-18T22:05:45.561Z,49.30
2018-02-18T22:08:14.039Z,44.20
2018-02-18T22:10:43.220Z,43.40
2018-02-18T22:13:12.462Z,40.60
2018-02-18T22:15:40.881Z,39.28
2018-02-18T22:18:09.300Z,42.67
2018-02-18T22:20:37.839Z,41.92
2018-02-18T22:23:06.019Z,40.58
2018-02-18T22:25:34.561Z,42.17
2018-02-18T22:28:02.879Z,42.10
2018-02-18T22:30:31.039Z,46.60
2018-02-18T22:32:59.419Z,42.70
2018-02-18T22:35:27.800Z,42.72
2018-02-18T22:37:56.079Z,45.40
2018-02-18T22:40:24.459Z,43.22
2018-02-18T22:42:52.539Z,47.40
2018-02-18T22:45:21.340Z,42.83
2018-02-18T22:47:50.519Z,46.17
2018-02-18T22:50:18.799Z,40.00
2018-02-18T22:52:47.659Z,45.75
2018-02-18T22:55:15.779Z,43.13
2018-02-18T22:57:44.119Z,43.63
2018-02-18T23:00:18.539Z,44.72
2018-02-18T23:02:46.700Z,47.85
2018-02-18T23:05:20.559Z,43.83
2018-02-18T23:07:48.839Z,44.35
2018-02-18T23:10:16.959Z,44.25
2018-02-18T23:12:45.259Z,44.25
2018-02-18T23:15:14.239Z,43.70
2018-02-18T23:17:42.541Z,42.60
2018-02-18T23:20:11.640Z,46.55
2018-02-18T23:22:40.041Z,43.05
2018-02-18T23:25:08.800Z,42.15
2018-02-18T23:27:37.880Z,42.85
2018-02-18T23:30:06.959Z,43.03
2018-02-18T23:32:35.399Z,41.10
2018-02-18T23:35:03.601Z,44.85
2018-02-18T23:37:31.960Z,40.60
2018-02-18T23:40:00.408Z,44.00
2018-02-18T23:42:28.740Z,45.83
2018-02-18T23:44:57.221Z,41.15
2018-02-18T23:47:25.699Z,41.70
2018-02-18T23:49:54.059Z,41.33
2018-02-18T23:52:22.579Z,40.80
2018-02-18T23:54:51.660Z,48.22
2018-02-18T23:57:19.799Z,39.28
2018-02-18T23:59:47.919Z,43.05
